Flight Track Log - Related Links

Times and Time Zones

All times are in EDT time to prevent confusion due to time zone crossing. See the N2213W flight status page for this flight to view local times or setup timezone preferences in your user account.


Time Position Orientation Groundspeed Altitude Reporting Facility
EDT Latitude Longitude Course Direction KTS MPH feet Rate Location/Type
Wed 02:07:25 PM 44.1333 -87.7833 230° Southwest 114 131 3,200  Level KMKE
Wed 02:08:49 PM 44.1000 -87.8333 227° Southwest 119 137 3,900 520 Climbing KMKE
Wed 02:09:55 PM 44.0833 -87.8667 235° Southwest 122 140 4,500 429 Climbing KMKE
Wed 02:10:55 PM 44.0500 -87.9000 216° Southwest 119 137 4,800 250 Climbing KMKE
Wed 02:11:55 PM 44.0333 -87.9333 235° Southwest 125 144 5,000 100 Climbing KMKE
Wed 02:12:00 PM 44.0039 -87.8903 230° Southwest  Level FlightAware Approximate
Wed 02:12:55 PM 44.0167 -87.9833 245° Southwest 130 150 5,000  Level KMKE
Wed 02:13:49 PM 43.9833 -88.0167 216° Southwest 133 153 5,000  Level KMKE
Wed 02:14:55 PM 43.9667 -88.0500 235° Southwest 133 153 5,000  Level KMKE
Wed 02:15:56 PM 43.9333 -88.1000 227° Southwest 134 154 5,000 50 Level KMKE
Wed 02:16:56 PM 43.9167 -88.1333 235° Southwest 133 153 5,100 50 Climbing KMKE
Wed 02:17:56 PM 43.8833 -88.1833 227° Southwest 133 153 5,100 -56 Level KMKE
Wed 02:18:44 PM 43.8667 -88.2000 216° Southwest 136 157 5,000 -71 Descending KMKE
Wed 02:19:20 PM 43.8533 -88.2292 238° Southwest 135 155 5,000  Level Minneapolis Center
Wed 02:20:22 PM 43.8283 -88.2664 227° Southwest 133 153 5,000  Level Minneapolis Center
Wed 02:21:24 PM 43.8019 -88.3025 225° Southwest 134 154 5,000 48 Level Minneapolis Center
Wed 02:22:26 PM 43.7764 -88.3392 226° Southwest 133 153 5,100  Climbing Minneapolis Center
Wed 02:23:28 PM 43.7500 -88.3736 223° Southwest 132 152 5,000 -48 Descending Minneapolis Center
Wed 02:24:30 PM 43.7167 -88.4150 222° Southwest 133 153 5,000 48 Level Minneapolis Center
Wed 02:25:32 PM 43.6911 -88.4514 226° Southwest 133 153 5,100 48 Climbing Minneapolis Center
Wed 02:26:34 PM 43.6681 -88.4894 230° Southwest 132 152 5,100  Level Minneapolis Center
Wed 02:27:38 PM 43.6442 -88.5278 229° Southwest 132 152 5,100 -48 Level Chicago Center
Wed 02:28:40 PM 43.6197 -88.5653 228° Southwest 132 152 5,000 -48 Descending Chicago Center
Wed 02:29:42 PM 43.5892 -88.6094 226° Southwest 133 153 5,000  Level Chicago Center
Wed 02:30:44 PM 43.5647 -88.6481 229° Southwest 134 154 5,000 48 Level Chicago Center
Wed 02:31:46 PM 43.5414 -88.6861 230° Southwest 132 152 5,100  Climbing Chicago Center
Wed 02:32:48 PM 43.5175 -88.7244 229° Southwest 132 152 5,000  Descending Chicago Center
Wed 02:33:51 PM 43.4931 -88.7617 228° Southwest 133 153 5,100 48 Climbing Chicago Center
Wed 02:34:53 PM 43.4642 -88.8092 230° Southwest 134 154 5,100  Level Chicago Center
Wed 02:35:55 PM 43.4397 -88.8464 228° Southwest 133 153 5,100  Level Chicago Center
Wed 02:36:57 PM 43.4150 -88.8836 228° Southwest 133 153 5,100 -145 Level Chicago Center
Wed 02:37:59 PM 43.3903 -88.9208 228° Southwest 132 152 4,800 -387 Descending Chicago Center
Wed 02:39:01 PM 43.3628 -88.9644 229° Southwest 141 162 4,300 -387 Descending Chicago Center
Wed 02:40:03 PM 43.3286 -89.0167 228° Southwest 149 171 4,000 -290 Descending Chicago Center
Wed 02:41:05 PM 43.2994 -89.0575 226° Southwest 150 173 3,700 -339 Descending Chicago Center
Wed 02:42:07 PM 43.2650 -89.0850 210° Southwest 149 171 3,300 -290 Descending Chicago Center
Wed 02:43:09 PM 43.2367 -89.1247 226° Southwest 149 171 3,100 -96 Descending Chicago Center
Wed 02:44:12 PM 43.2100 -89.1644 227° Southwest 145 167 3,100 -48 Level Chicago Center
Wed 02:45:14 PM 43.1775 -89.2122 227° Southwest 143 165 3,000 -290 Descending Chicago Center
Wed 02:46:16 PM 43.1503 -89.2508 226° Southwest 142 163 2,500 -532 Descending Chicago Center
Wed 02:47:18 PM 43.1261 -89.2875 228° Southwest 137 158 1,900 -629 Descending Chicago Center
Wed 02:48:20 PM 43.1336 -89.3239 286° West 126 145 1,200 -677 Descending Chicago Center

Login

Don't have an account? Register now (free) for customized features, flight alerts, and more!